Terminal Aerodrome Forecast
Issued by NWS North Platte, NE

Home | Current Version | Previous Version | Graphics & Text | Print | Product List | Glossary On
Versions: 1 2 3 4 5 6 7 8 9 10 11 12 13 14
000
FTUS43 KLBF 291122
TAFVTN
TAF
KVTN 291122Z 2912/3012 24005KT P6SM SKC
     FM291600 13008KT P6SM SCT250
     FM292100 14010KT P6SM SCT100 BKN250
     FM300300 21006KT P6SM FEW100 BKN250=

USA.gov is the U.S. government's official web portal to all federal, state and local government web resources and services.